Time;durP1;ratioP1;P1;durP2;ratioP2;P2;SDS_P1;SDS_P2;PMS_P1;PMS_P2;Temp;Humidity;BMP_temperature;BMP_pressure;BME280_temperature;BME280_humidity;BME280_pressure;Samples;Min_cycle;Max_cycle;Signal;HPM_P1;HPM_P2
2022/09/13 00:00:58;;;;;;;8.67;5.37;;;;;;;14.68;100.00;94538.59;5142864;27;20727;-79
2022/09/13 00:03:25;;;;;;;9.00;5.57;;;;;;;14.73;100.00;94544.66;5149569;27;20198;-78
2022/09/13 00:05:51;;;;;;;6.23;5.13;;;;;;;14.76;99.20;94533.72;5153893;27;20247;-78
2022/09/13 00:08:20;;;;;;;6.53;5.17;;;;;;;14.87;98.94;94528.56;5154350;27;20241;-78
2022/09/13 00:10:47;;;;;;;6.47;5.43;;;;;;;14.95;99.07;94528.91;5154398;27;20203;-79
2022/09/13 00:13:15;;;;;;;7.83;5.50;;;;;;;14.99;98.62;94524.78;5153737;27;20207;-79
2022/09/13 00:15:43;;;;;;;9.67;5.37;;;;;;;15.01;98.88;94517.47;5153785;27;20198;-79
2022/09/13 00:18:10;;;;;;;6.20;5.20;;;;;;;15.06;98.78;94520.16;5149058;27;20578;-78
2022/09/13 00:20:37;;;;;;;7.90;5.30;;;;;;;15.08;98.67;94519.88;5153602;27;20612;-78
2022/09/13 00:23:04;;;;;;;9.33;5.17;;;;;;;15.15;98.38;94512.63;5153441;27;20285;-79
2022/09/13 00:25:32;;;;;;;11.00;5.50;;;;;;;15.09;98.24;94516.22;5147092;27;20200;-79
2022/09/13 00:27:59;;;;;;;6.20;5.50;;;;;;;15.33;97.65;94512.22;5153235;27;20195;-82
2022/09/13 00:30:26;;;;;;;7.53;5.17;;;;;;;15.38;97.01;94509.66;5153235;27;20210;-79
2022/09/13 00:32:53;;;;;;;9.33;5.30;;;;;;;15.39;96.99;94507.81;5146002;27;20657;-80
2022/09/13 00:35:19;;;;;;;9.43;5.30;;;;;;;15.31;97.71;94509.06;5146352;27;20304;-82
2022/09/13 00:37:46;;;;;;;10.07;5.30;;;;;;;15.29;97.65;94501.47;5146902;27;20198;-78
2022/09/13 00:40:13;;;;;;;14.10;5.80;;;;;;;15.32;97.26;94500.97;5153860;27;20198;-78
2022/09/13 00:42:41;;;;;;;6.37;5.30;;;;;;;15.27;97.59;94497.50;5153219;27;20205;-78
2022/09/13 00:45:16;;;;;;;7.63;5.43;;;;;;;15.23;97.58;94486.78;5153252;27;20238;-77
2022/09/13 00:47:47;;;;;;;8.37;5.40;;;;;;;15.37;97.29;94496.81;5152561;27;20197;-78
2022/09/13 00:50:23;;;;;;;6.07;5.00;;;;;;;15.40;97.45;94501.53;5152771;27;20215;-78
2022/09/13 00:52:54;;;;;;;6.40;5.63;;;;;;;15.38;97.40;94499.19;5152858;27;20241;-76
2022/09/13 00:55:26;;;;;;;6.03;4.87;;;;;;;15.40;96.87;94497.09;5151797;27;20899;-78
2022/09/13 00:58:01;;;;;;;6.63;5.30;;;;;;;15.35;96.71;94481.38;5151614;27;20284;-78
2022/09/13 01:00:28;;;;;;;6.33;4.93;;;;;;;15.37;96.85;94497.59;5152599;27;20221;-77
2022/09/13 01:03:00;;;;;;;8.13;5.23;;;;;;;15.36;97.27;94485.53;5152319;27;20209;-79
2022/09/13 01:05:32;;;;;;;6.93;5.50;;;;;;;15.34;96.85;94492.88;5152664;27;20206;-77
2022/09/13 01:08:00;;;;;;;7.60;5.27;;;;;;;15.34;97.22;94493.66;5153454;27;20198;-77
2022/09/13 01:10:30;;;;;;;8.10;5.33;;;;;;;15.35;97.06;94497.06;5152429;27;20691;-78
2022/09/13 01:13:13;;;;;;;9.77;5.20;;;;;;;15.30;97.33;94497.00;5152567;27;20293;-78
2022/09/13 01:15:41;;;;;;;9.47;5.27;;;;;;;15.24;98.02;94495.41;5152697;27;20594;-78
2022/09/13 01:18:08;;;;;;;6.00;5.13;;;;;;;15.30;97.36;94489.16;5148846;27;20202;-79
2022/09/13 01:20:46;;;;;;;10.47;5.13;;;;;;;15.35;97.16;94494.44;5153012;27;20234;-77
2022/09/13 01:23:33;;;;;;;7.93;5.50;;;;;;;15.30;97.38;94491.78;5152578;27;20202;-77
2022/09/13 01:26:42;;;;;;;9.30;5.50;;;;;;;15.31;97.53;94486.31;5152840;27;20229;-77
2022/09/13 01:29:41;;;;;;;6.83;5.53;;;;;;;15.35;97.25;94483.97;5151914;27;20211;-77
2022/09/13 01:32:18;;;;;;;6.90;5.30;;;;;;;15.38;97.68;94485.31;5151999;27;20206;-78
2022/09/13 01:34:59;;;;;;;7.67;5.60;;;;;;;15.35;97.11;94482.13;5152146;27;20202;-77
2022/09/13 01:37:43;;;;;;;8.43;5.40;;;;;;;15.30;97.86;94481.31;5152347;27;20232;-78
2022/09/13 01:40:18;;;;;;;8.07;5.67;;;;;;;15.39;97.61;94479.00;5151910;27;20278;-78
2022/09/13 01:43:09;;;;;;;6.63;5.30;;;;;;;15.42;97.29;94479.31;5152423;27;20225;-77
2022/09/13 01:45:44;;;;;;;7.40;5.47;;;;;;;15.45;97.50;94480.63;5151731;27;20217;-77
2022/09/13 01:48:19;;;;;;;8.30;6.10;;;;;;;15.53;96.37;94467.88;5151361;27;20587;-77
2022/09/13 01:50:51;;;;;;;17.17;9.60;;;;;;;15.32;97.24;94469.53;5138699;27;20202;-77
2022/09/13 01:53:25;;;;;;;56.17;39.90;;;;;;;15.30;98.01;94476.06;5139524;27;20206;-77
2022/09/13 01:56:01;;;;;;;49.67;39.23;;;;;;;15.20;98.29;94476.81;5151854;27;20676;-77
2022/09/13 01:58:34;;;;;;;45.03;30.97;;;;;;;15.16;98.62;94474.91;5151823;27;20195;-77
2022/09/13 02:01:09;;;;;;;35.53;27.90;;;;;;;15.09;99.30;94477.72;5151766;27;20191;-77
2022/09/13 02:03:44;;;;;;;21.40;17.43;;;;;;;15.01;99.09;94475.59;5152095;27;20204;-77
2022/09/13 02:06:15;;;;;;;17.00;13.07;;;;;;;14.84;99.99;94468.88;5151725;27;20198;-77
2022/09/13 02:08:45;;;;;;;11.80;9.40;;;;;;;14.75;100.00;94469.34;5155936;27;20213;-77
2022/09/13 02:11:15;;;;;;;9.43;7.63;;;;;;;14.74;100.00;94470.41;5155882;27;20576;-78
2022/09/13 02:13:48;;;;;;;7.97;6.57;;;;;;;14.79;100.00;94474.88;5155368;27;20996;-77
2022/09/13 02:16:20;;;;;;;9.17;6.27;;;;;;;14.68;100.00;94460.91;5142552;27;20195;-78
2022/09/13 02:18:53;;;;;;;9.60;5.83;;;;;;;14.76;100.00;94478.78;5151510;27;20247;-77
2022/09/13 02:21:25;;;;;;;10.33;6.07;;;;;;;14.77;100.00;94477.72;5155278;27;20198;-77
2022/09/13 02:23:58;;;;;;;7.40;6.00;;;;;;;14.81;100.00;94472.78;5155117;27;20298;-77
2022/09/13 02:26:27;;;;;;;9.63;5.50;;;;;;;14.84;100.00;94461.81;5149073;27;20190;-78
2022/09/13 02:28:57;;;;;;;6.83;5.93;;;;;;;14.85;99.83;94458.19;5127126;27;20214;-78
2022/09/13 02:31:30;;;;;;;9.37;5.80;;;;;;;14.83;100.00;94472.56;5155320;27;20202;-78
2022/09/13 02:34:03;;;;;;;11.87;5.53;;;;;;;14.70;100.00;94471.91;5155339;27;20206;-77
2022/09/13 02:36:33;;;;;;;9.80;6.07;;;;;;;14.55;100.00;94468.34;5154801;27;20543;-77
2022/09/13 02:39:03;;;;;;;10.23;6.40;;;;;;;14.60;100.00;94471.81;5155055;27;20251;-78
2022/09/13 02:41:35;;;;;;;6.13;5.43;;;;;;;14.61;100.00;94472.59;5155654;27;20210;-77
2022/09/13 02:44:09;;;;;;;6.40;5.13;;;;;;;14.67;100.00;94477.63;5154556;27;20680;-77
2022/09/13 02:46:53;;;;;;;6.20;5.23;;;;;;;14.62;100.00;94479.41;5155253;27;20217;-77
2022/09/13 02:49:28;;;;;;;7.57;5.50;;;;;;;14.61;100.00;94478.63;5150157;27;20226;-77
2022/09/13 02:51:59;;;;;;;6.17;5.30;;;;;;;14.61;100.00;94478.63;5154610;27;20652;-77
2022/09/13 02:54:32;;;;;;;8.50;5.93;;;;;;;14.58;100.00;94481.72;5155158;27;20202;-76
2022/09/13 02:57:05;;;;;;;8.77;5.53;;;;;;;14.50;100.00;94481.38;5154884;27;20199;-78
2022/09/13 02:59:33;;;;;;;6.60;5.50;;;;;;;14.47;100.00;94481.88;5147404;27;20222;-78
2022/09/13 03:02:05;;;;;;;8.63;5.60;;;;;;;14.40;100.00;94468.97;5154585;27;20219;-77
2022/09/13 03:04:33;;;;;;;8.53;5.77;;;;;;;14.48;100.00;94470.38;5154478;27;20201;-78
2022/09/13 03:07:03;;;;;;;9.03;5.80;;;;;;;14.45;100.00;94470.88;5154659;27;20199;-78
2022/09/13 03:09:30;;;;;;;7.53;5.33;;;;;;;14.47;100.00;94471.41;5154373;27;20226;-78
2022/09/13 03:12:13;;;;;;;10.87;5.57;;;;;;;14.44;100.00;94467.47;5154151;27;20206;-77
2022/09/13 03:14:46;;;;;;;7.33;5.60;;;;;;;14.27;100.00;94477.19;5154253;27;20194;-77
2022/09/13 03:17:32;;;;;;;8.13;5.50;;;;;;;14.25;100.00;94468.81;5151715;27;20199;-78
2022/09/13 03:20:23;;;;;;;5.53;4.93;;;;;;;14.12;100.00;94474.41;5152539;27;20191;-78
2022/09/13 03:23:23;;;;;;;6.17;5.27;;;;;;;14.00;100.00;94468.50;5154429;27;20203;-78
2022/09/13 03:26:12;;;;;;;6.60;5.07;;;;;;;13.97;100.00;94463.75;5153791;27;20585;-78
2022/09/13 03:28:50;;;;;;;6.30;4.83;;;;;;;13.97;100.00;94469.78;5154126;27;20202;-78
2022/09/13 03:31:25;;;;;;;7.43;4.80;;;;;;;13.92;100.00;94474.94;5147101;27;20221;-78
2022/09/13 03:33:57;;;;;;;8.43;4.70;;;;;;;13.92;100.00;94472.34;5153771;27;20194;-78
2022/09/13 03:36:33;;;;;;;5.73;4.80;;;;;;;13.82;100.00;94467.00;5153960;27;20289;-79
2022/09/13 03:39:07;;;;;;;8.47;5.20;;;;;;;13.80;100.00;94470.84;5146453;27;20221;-79
2022/09/13 03:41:39;;;;;;;8.30;4.67;;;;;;;13.83;100.00;94472.97;5153296;27;20673;-78
2022/09/13 03:44:10;;;;;;;8.23;4.83;;;;;;;13.84;100.00;94477.97;5153566;27;20640;-79
2022/09/13 03:46:41;;;;;;;6.77;5.20;;;;;;;13.87;100.00;94476.72;5153733;27;20203;-78
2022/09/13 03:49:12;;;;;;;6.23;5.03;;;;;;;13.81;100.00;94475.84;5147652;27;20223;-78
2022/09/13 03:51:40;;;;;;;8.00;4.97;;;;;;;13.76;100.00;94475.78;5153280;27;20234;-78
2022/09/13 03:54:14;;;;;;;6.33;4.90;;;;;;;13.69;100.00;94469.94;5153433;27;20259;-79
2022/09/13 03:56:41;;;;;;;6.70;5.10;;;;;;;13.77;100.00;94479.97;5153288;27;20199;-78
2022/09/13 03:59:08;;;;;;;8.07;5.47;;;;;;;13.92;100.00;94479.38;5153059;27;20640;-79
2022/09/13 04:01:35;;;;;;;7.40;5.77;;;;;;;14.00;100.00;94471.09;5152836;27;20570;-78
2022/09/13 04:04:02;;;;;;;6.67;5.60;;;;;;;14.03;100.00;94481.88;5153411;27;20199;-78
2022/09/13 04:06:29;;;;;;;7.20;5.47;;;;;;;13.86;100.00;94477.72;5151051;27;20275;-79
2022/09/13 04:08:58;;;;;;;8.73;5.30;;;;;;;13.92;100.00;94480.16;5148358;27;20225;-79
2022/09/13 04:11:25;;;;;;;6.17;5.17;;;;;;;13.75;100.00;94474.19;5153152;27;20229;-79
2022/09/13 04:13:52;;;;;;;6.93;5.60;;;;;;;13.77;100.00;94472.13;5153710;27;20203;-79
2022/09/13 04:16:19;;;;;;;7.30;5.43;;;;;;;13.82;100.00;94481.88;5150655;27;20636;-78
2022/09/13 04:18:46;;;;;;;6.63;5.20;;;;;;;13.95;100.00;94478.88;5148248;27;20198;-77
2022/09/13 04:21:13;;;;;;;8.13;5.43;;;;;;;13.94;100.00;94475.47;5152922;27;20223;-77
2022/09/13 04:23:39;;;;;;;6.87;5.20;;;;;;;13.95;100.00;94474.47;5153270;27;20240;-78
2022/09/13 04:26:08;;;;;;;8.10;5.57;;;;;;;14.04;100.00;94478.22;5146266;27;20206;-77
2022/09/13 04:28:34;;;;;;;11.17;5.47;;;;;;;14.08;100.00;94486.38;5152796;27;20221;-77
2022/09/13 04:31:01;;;;;;;9.17;5.30;;;;;;;14.14;100.00;94485.41;5151156;27;20219;-77
2022/09/13 04:33:28;;;;;;;7.93;5.60;;;;;;;14.15;100.00;94484.38;5152638;27;20206;-78
2022/09/13 04:35:58;;;;;;;10.93;5.63;;;;;;;14.08;100.00;94492.38;5152590;27;20199;-78
2022/09/13 04:38:25;;;;;;;11.43;5.40;;;;;;;14.14;100.00;94488.78;5152527;27;20206;-77
2022/09/13 04:40:55;;;;;;;10.53;5.50;;;;;;;14.17;100.00;94485.69;5152377;27;20269;-77
2022/09/13 04:43:24;;;;;;;9.53;5.27;;;;;;;14.28;100.00;94491.84;5152228;27;20205;-78
2022/09/13 04:45:51;;;;;;;8.83;5.87;;;;;;;14.31;100.00;94501.03;5152478;27;20195;-79
2022/09/13 04:48:18;;;;;;;8.73;5.63;;;;;;;14.34;100.00;94505.78;5146635;27;20206;-79
2022/09/13 04:50:46;;;;;;;9.63;5.30;;;;;;;14.27;100.00;94505.94;5152462;27;20215;-79
2022/09/13 04:53:13;;;;;;;8.17;5.87;;;;;;;14.29;100.00;94511.72;5152457;27;20277;-78
2022/09/13 04:55:40;;;;;;;12.23;6.27;;;;;;;14.31;99.59;94508.88;5152131;27;20209;-78
2022/09/13 04:58:07;;;;;;;7.40;5.33;;;;;;;14.39;99.09;94516.31;5069015;27;20643;-77
2022/09/13 05:00:36;;;;;;;6.77;4.70;;;;;;;14.35;99.29;94507.34;5118184;27;20203;-78
2022/09/13 05:03:03;;;;;;;15.80;5.33;;;;;;;14.36;98.76;94514.97;5132292;27;20259;-77
2022/09/13 05:05:31;;;;;;;11.27;4.80;;;;;;;14.35;99.20;94510.75;5131344;27;20199;-77
2022/09/13 05:07:58;;;;;;;7.63;4.50;;;;;;;14.43;98.88;94514.78;5131430;27;20242;-78
2022/09/13 05:10:25;;;;;;;9.73;4.90;;;;;;;14.47;98.52;94514.03;5130249;27;20211;-78
2022/09/13 05:12:52;;;;;;;10.30;4.83;;;;;;;14.40;99.13;94510.81;5131307;27;20207;-77
2022/09/13 05:15:19;;;;;;;7.87;4.90;;;;;;;14.47;98.48;94514.03;5131507;27;20641;-78
2022/09/13 05:17:47;;;;;;;9.47;5.03;;;;;;;14.48;98.82;94507.00;5129691;27;20206;-78
2022/09/13 05:20:14;;;;;;;6.63;4.10;;;;;;;14.56;97.78;94507.34;5133291;27;20214;-77
2022/09/13 05:22:44;;;;;;;9.23;4.40;;;;;;;14.61;97.79;94501.38;5127795;27;20203;-78
2022/09/13 05:25:11;;;;;;;6.23;4.30;;;;;;;14.81;96.78;94509.41;5135818;27;20199;-78
2022/09/13 05:27:37;;;;;;;9.87;4.63;;;;;;;14.93;95.72;94507.44;5128069;27;20218;-78
2022/09/13 05:30:05;;;;;;;6.60;4.30;;;;;;;14.83;95.99;94503.94;5131675;27;20223;-78
2022/09/13 05:32:32;;;;;;;5.37;4.20;;;;;;;14.96;97.01;94511.38;5128268;27;20203;-79
2022/09/13 05:35:01;;;;;;;12.30;4.37;;;;;;;15.02;96.62;94518.25;5134366;27;20206;-77
2022/09/13 05:37:27;;;;;;;11.70;4.53;;;;;;;14.99;96.73;94509.06;5128497;27;20211;-75
2022/09/13 05:39:54;;;;;;;6.10;4.10;;;;;;;15.05;96.64;94517.75;5131332;27;20593;-76
2022/09/13 05:42:21;;;;;;;9.17;4.47;;;;;;;15.01;95.79;94519.28;5125600;27;20203;-77
2022/09/13 05:44:48;;;;;;;5.57;3.90;;;;;;;15.15;94.26;94510.00;5131524;27;20226;-77
2022/09/13 05:47:15;;;;;;;5.13;4.07;;;;;;;15.12;94.23;94521.75;5133170;27;20207;-76
2022/09/13 05:49:42;;;;;;;4.80;4.30;;;;;;;15.04;93.70;94518.78;5131941;27;20268;-75
2022/09/13 05:52:10;;;;;;;7.10;4.53;;;;;;;14.80;95.11;94518.31;5130831;27;20227;-76
2022/09/13 05:54:37;;;;;;;6.50;4.13;;;;;;;14.73;96.05;94523.75;5130104;27;20199;-76
2022/09/13 05:57:04;;;;;;;5.87;4.40;;;;;;;14.60;97.34;94520.72;5128193;27;20207;-76
2022/09/13 05:59:31;;;;;;;10.97;4.70;;;;;;;14.55;97.46;94516.22;5131151;27;20200;-76
2022/09/13 06:01:58;;;;;;;10.97;4.20;;;;;;;14.55;97.08;94518.03;5129975;27;20223;-77
2022/09/13 06:04:25;;;;;;;6.93;4.27;;;;;;;14.67;96.85;94519.50;5131604;27;20210;-76
2022/09/13 06:06:52;;;;;;;5.70;4.20;;;;;;;14.57;97.22;94510.75;5129218;27;20202;-76
2022/09/13 06:09:23;;;;;;;12.50;4.27;;;;;;;14.62;97.78;94523.88;5130760;27;20192;-77
2022/09/13 06:11:50;;;;;;;7.07;4.57;;;;;;;14.76;96.77;94520.63;5134506;27;20318;-77
2022/09/13 06:14:16;;;;;;;6.17;4.70;;;;;;;14.97;96.14;94531.31;5129419;27;20191;-77
2022/09/13 06:16:43;;;;;;;6.73;4.10;;;;;;;15.06;96.25;94522.75;5131704;27;20211;-77
2022/09/13 06:19:11;;;;;;;6.17;4.07;;;;;;;15.13;96.56;94530.38;5132190;27;20199;-77
2022/09/13 06:21:38;;;;;;;8.40;4.00;;;;;;;15.15;95.87;94526.47;5132012;27;20200;-77
2022/09/13 06:24:06;;;;;;;7.63;3.80;;;;;;;15.13;95.82;94528.56;5129989;27;20191;-76
2022/09/13 06:26:34;;;;;;;7.23;4.13;;;;;;;15.22;96.02;94528.91;5129322;27;20199;-77
2022/09/13 06:29:01;;;;;;;6.33;4.23;;;;;;;15.32;95.73;94521.91;5136158;27;20207;-78
2022/09/13 06:31:28;;;;;;;5.33;4.00;;;;;;;15.34;94.71;94530.31;5128678;27;20223;-78
2022/09/13 06:33:57;;;;;;;6.30;4.13;;;;;;;15.38;94.49;94535.84;5139754;27;20203;-77
2022/09/13 06:36:24;;;;;;;8.37;4.30;;;;;;;15.48;94.48;94530.72;5129716;27;20283;-78
2022/09/13 06:38:51;;;;;;;5.47;4.40;;;;;;;15.56;93.16;94530.25;5136322;27;20203;-77
2022/09/13 06:41:21;;;;;;;5.67;3.90;;;;;;;15.60;93.10;94533.94;5131096;27;20582;-77
2022/09/13 06:43:53;;;;;;;5.20;4.03;;;;;;;15.65;93.45;94544.44;5138578;27;20222;-77
2022/09/13 06:46:20;;;;;;;11.50;4.23;;;;;;;15.72;93.12;94542.41;5131903;27;21549;-77
2022/09/13 06:48:47;;;;;;;6.83;4.30;;;;;;;15.87;90.90;94544.34;5134107;27;20200;-77
2022/09/13 06:51:17;;;;;;;10.07;4.00;;;;;;;15.87;91.00;94549.59;5131954;27;20264;-76
2022/09/13 06:53:45;;;;;;;6.27;4.13;;;;;;;15.90;91.81;94549.84;5133247;27;20569;-76
2022/09/13 06:56:14;;;;;;;7.50;4.43;;;;;;;15.93;91.92;94553.81;5133808;27;20203;-77
2022/09/13 06:58:43;;;;;;;6.53;4.40;;;;;;;15.99;91.80;94550.16;5130498;27;20199;-76
2022/09/13 07:01:15;;;;;;;4.73;3.80;;;;;;;15.99;91.71;94554.66;5134872;27;20207;-76
2022/09/13 07:03:43;;;;;;;10.10;4.53;;;;;;;16.11;90.58;94558.63;5126398;27;20658;-76
2022/09/13 07:06:15;;;;;;;7.10;4.00;;;;;;;16.14;89.06;94559.94;5137610;27;20634;-75
2022/09/13 07:08:43;;;;;;;5.60;3.93;;;;;;;15.98;88.38;94563.53;5131438;27;20206;-75
2022/09/13 07:11:11;;;;;;;9.33;3.80;;;;;;;15.99;88.82;94554.66;5132299;27;20231;-76
2022/09/13 07:13:38;;;;;;;9.40;3.97;;;;;;;16.02;88.33;94562.78;5132554;27;20203;-76
2022/09/13 07:16:08;;;;;;;5.17;4.20;;;;;;;16.10;88.82;94562.31;5134991;27;20203;-75
2022/09/13 07:18:36;;;;;;;5.87;4.20;;;;;;;16.18;89.57;94561.03;5132422;27;20215;-75
2022/09/13 07:21:04;;;;;;;7.20;4.57;;;;;;;16.34;86.21;94568.72;5131927;27;20199;-77
2022/09/13 07:23:33;;;;;;;6.90;4.20;;;;;;;16.39;86.80;94567.97;5131397;27;20280;-80
2022/09/13 07:26:04;;;;;;;5.20;3.90;;;;;;;16.44;86.95;94562.75;5128182;27;20198;-78
2022/09/13 07:28:33;;;;;;;4.97;4.07;;;;;;;16.42;85.60;94562.22;5131608;27;20670;-76
2022/09/13 07:31:06;;;;;;;6.97;4.37;;;;;;;16.46;86.08;94560.63;5128336;27;20211;-75
2022/09/13 07:33:33;;;;;;;6.63;4.37;;;;;;;16.55;85.42;94566.22;5130195;27;20199;-77
2022/09/13 07:36:06;;;;;;;5.33;4.00;;;;;;;16.57;83.57;94564.13;5128981;27;20200;-77
2022/09/13 07:38:34;;;;;;;8.47;3.60;;;;;;;16.47;82.91;94562.22;5128556;27;20247;-79
2022/09/13 07:41:08;;;;;;;4.97;3.33;;;;;;;16.57;83.00;94566.72;5139303;27;20222;-77
2022/09/13 07:43:36;;;;;;;5.97;3.77;;;;;;;16.57;83.20;94564.13;5132487;27;20198;-77
2022/09/13 07:46:20;;;;;;;4.33;3.73;;;;;;;16.65;82.40;94576.75;5131305;27;20198;-78
2022/09/13 07:48:48;;;;;;;4.47;3.70;;;;;;;16.70;82.55;94569.69;5131435;27;20195;-77
2022/09/13 07:51:18;;;;;;;7.67;4.27;;;;;;;16.80;82.58;94582.84;5131728;27;20223;-77
2022/09/13 07:53:46;;;;;;;6.70;4.17;;;;;;;16.84;81.49;94583.13;5136310;27;20224;-79
2022/09/13 07:56:15;;;;;;;4.23;3.30;;;;;;;16.75;81.08;94572.31;5135720;27;20261;-77
2022/09/13 07:58:43;;;;;;;4.63;3.60;;;;;;;16.84;80.86;94583.13;5133361;27;20199;-80
2022/09/13 08:01:15;;;;;;;5.67;3.43;;;;;;;16.96;80.20;94581.84;5129931;27;20654;-79
2022/09/13 08:03:44;;;;;;;4.37;3.57;;;;;;;17.02;80.51;94577.41;5136726;27;20632;-78
2022/09/13 08:06:12;;;;;;;4.97;3.50;;;;;;;17.15;80.87;94584.75;5139475;27;20192;-78
2022/09/13 08:08:41;;;;;;;7.00;3.77;;;;;;;17.17;77.64;94582.66;5134444;27;20214;-77
2022/09/13 08:11:08;;;;;;;4.03;3.60;;;;;;;17.35;77.38;94576.13;5134881;27;20219;-77
2022/09/13 08:13:38;;;;;;;4.90;2.90;;;;;;;17.37;76.14;94574.03;5133045;27;20191;-81
2022/09/13 08:16:06;;;;;;;4.20;3.57;;;;;;;17.48;76.31;94575.63;5135602;27;20829;-78
2022/09/13 08:18:33;;;;;;;7.70;3.00;;;;;;;17.60;75.14;94584.06;5136889;27;20198;-79
2022/09/13 08:21:01;;;;;;;4.00;3.10;;;;;;;17.64;75.49;94579.06;5136179;27;20203;-80
2022/09/13 08:23:28;;;;;;;4.90;3.07;;;;;;;17.63;74.05;94575.66;5137474;27;20187;-76
2022/09/13 08:26:03;;;;;;;4.13;2.80;;;;;;;17.72;74.92;94581.94;5137332;27;20195;-78
2022/09/13 08:28:30;;;;;;;4.27;3.30;;;;;;;17.80;73.28;94567.50;5134280;27;20194;-77
2022/09/13 08:31:02;;;;;;;7.80;3.10;;;;;;;17.89;72.74;94568.53;5135514;27;20780;-79
2022/09/13 08:33:31;;;;;;;5.10;3.37;;;;;;;18.09;74.21;94576.41;5132098;27;20200;-78
2022/09/13 08:35:57;;;;;;;4.27;2.70;;;;;;;18.33;70.35;94574.75;5137544;27;20187;-78
2022/09/13 08:38:25;;;;;;;6.18;2.60;;;;;;;18.43;70.47;94571.31;5137802;27;20191;-79
2022/09/13 08:40:56;;;;;;;4.90;2.67;;;;;;;18.39;69.95;94570.25;5137369;27;20210;-75
2022/09/13 08:43:40;;;;;;;5.63;2.85;;;;;;;18.45;69.37;94574.44;5128930;27;20199;-78
2022/09/13 08:46:12;;;;;;;4.97;2.90;;;;;;;18.42;69.45;94562.63;5130719;27;20195;-78
2022/09/13 08:48:43;;;;;;;5.85;3.00;;;;;;;18.55;65.34;94563.94;5143478;27;20195;-77
2022/09/13 08:51:23;;;;;;;6.57;3.20;;;;;;;18.48;66.15;94558.13;5151210;27;20238;-80
2022/09/13 08:53:51;;;;;;;6.03;2.90;;;;;;;18.45;67.04;94569.19;5150961;27;20207;-77
2022/09/13 08:56:23;;;;;;;2.85;2.65;;;;;;;18.36;66.46;94557.63;5151975;27;20661;-79
2022/09/13 08:59:09;;;;;;;3.10;2.40;;;;;;;18.52;67.25;94564.47;5151774;27;20202;-78
2022/09/13 09:01:49;;;;;;;5.68;3.05;;;;;;;18.83;65.62;94558.00;5150904;27;20198;-77
2022/09/13 09:04:31;;;;;;;2.78;2.58;;;;;;;19.03;64.26;94562.38;5145603;27;20589;-77
2022/09/13 09:07:05;;;;;;;7.07;3.00;;;;;;;19.00;63.83;94563.72;5147486;27;20206;-79
2022/09/13 09:09:37;;;;;;;4.95;2.80;;;;;;;18.89;63.88;94571.94;5144212;27;20199;-78
2022/09/13 09:12:14;;;;;;;2.72;2.40;;;;;;;18.83;64.06;94565.91;5144753;27;20711;-78
2022/09/13 09:14:47;;;;;;;4.30;2.38;;;;;;;18.76;63.94;94564.63;5152147;27;20583;-80
2022/09/13 09:17:20;;;;;;;7.22;2.53;;;;;;;18.85;64.59;94570.91;5148161;27;20277;-84
2022/09/13 09:19:52;;;;;;;4.82;2.58;;;;;;;18.87;62.12;94566.16;5152392;27;20569;-78
2022/09/13 09:22:21;;;;;;;3.75;2.67;;;;;;;19.04;61.66;94571.88;5151068;27;20230;-79
2022/09/13 09:24:54;;;;;;;2.53;2.33;;;;;;;18.94;61.94;94570.06;5151946;27;20283;-79
2022/09/13 09:27:21;;;;;;;3.97;2.50;;;;;;;18.92;62.54;94566.91;5151273;27;20215;-79
2022/09/13 09:29:53;;;;;;;4.88;2.55;;;;;;;19.24;69.97;94563.84;5151464;27;20213;-79
2022/09/13 09:32:47;;;;;;;2.40;2.20;;;;;;;19.59;66.21;94560.97;5151672;27;20263;-79
2022/09/13 09:35:21;;;;;;;3.35;2.38;;;;;;;19.78;61.50;94555.81;5144429;27;20242;-81
2022/09/13 09:38:06;;;;;;;3.78;2.50;;;;;;;19.81;60.90;94542.06;5151761;27;20224;-78
2022/09/13 09:40:35;;;;;;;6.00;2.42;;;;;;;19.76;62.73;94544.75;5138258;27;20202;-83
2022/09/13 09:43:11;;;;;;;3.03;2.50;;;;;;;19.87;60.02;94538.31;5140542;27;20252;-81
2022/09/13 09:45:41;;;;;;;6.97;2.63;;;;;;;20.11;61.21;94539.16;5150795;27;20202;-78
2022/09/13 09:48:16;;;;;;;4.32;2.53;;;;;;;20.30;60.45;94540.03;5144646;27;20195;-77
2022/09/13 09:50:47;;;;;;;3.78;2.70;;;;;;;20.51;61.57;94543.22;5151114;27;20199;-81
2022/09/13 09:53:23;;;;;;;4.68;3.45;;;;;;;20.79;60.00;94538.91;5151194;27;20225;-80
2022/09/13 09:55:55;;;;;;;3.65;2.55;;;;;;;21.14;59.41;94535.81;5151182;27;20195;-79
2022/09/13 09:58:38;;;;;;;4.65;2.72;;;;;;;21.76;58.64;94539.09;5148286;27;20195;-82
2022/09/13 10:01:18;;;;;;;3.83;2.88;;;;;;;21.88;56.23;94536.78;5150952;27;20195;-79
2022/09/13 10:03:52;;;;;;;3.10;2.80;;;;;;;22.15;54.55;94526.25;5151216;27;20198;-78
2022/09/13 10:06:21;;;;;;;2.85;2.58;;;;;;;22.71;53.01;94538.47;5146510;27;20190;-79
2022/09/13 10:08:57;;;;;;;5.25;2.83;;;;;;;23.06;51.85;94538.47;5131619;27;20200;-79
2022/09/13 10:11:25;;;;;;;3.03;2.58;;;;;;;23.08;52.09;94531.03;5137656;27;20211;-83
2022/09/13 10:14:00;;;;;;;3.20;2.58;;;;;;;23.05;52.19;94520.25;5145173;27;20286;-83
2022/09/13 10:16:30;;;;;;;5.75;2.70;;;;;;;23.41;51.90;94528.19;5137944;27;20699;-81
2022/09/13 10:19:23;;;;;;;6.22;2.90;;;;;;;23.65;51.47;94521.50;5138828;27;20200;-79
2022/09/13 10:22:01;;;;;;;4.07;2.90;;;;;;;24.08;51.74;94526.28;5143181;27;20787;-79
2022/09/13 10:24:29;;;;;;;2.95;2.70;;;;;;;24.28;49.40;94523.91;5148525;27;20199;-79
2022/09/13 10:26:56;;;;;;;3.50;2.50;;;;;;;24.47;49.02;94513.03;5133629;27;20776;-81
2022/09/13 10:29:25;;;;;;;4.72;2.40;;;;;;;24.57;47.52;94530.56;5136509;27;20202;-80
2022/09/13 10:31:56;;;;;;;4.10;2.35;;;;;;;24.32;47.40;94518.78;5135565;27;20204;-80
2022/09/13 10:34:26;;;;;;;2.60;2.40;;;;;;;23.75;48.77;94522.34;5141028;27;20196;-79
2022/09/13 10:36:57;;;;;;;5.90;3.03;;;;;;;23.40;49.05;94526.63;5133270;27;20203;-82
2022/09/13 10:39:26;;;;;;;3.50;2.88;;;;;;;22.84;51.00;94519.09;5143273;27;20195;-77
2022/09/13 10:41:57;;;;;;;7.00;2.88;;;;;;;22.97;51.64;94511.09;5140835;27;20199;-79
2022/09/13 10:44:30;;;;;;;3.25;2.55;;;;;;;23.51;52.02;94507.53;5140156;27;20665;-78
2022/09/13 10:47:00;;;;;;;3.55;3.20;;;;;;;23.79;49.82;94510.81;5132393;27;20650;-78
2022/09/13 10:49:44;;;;;;;3.97;2.47;;;;;;;23.57;47.13;94501.00;5133908;27;20196;-77
2022/09/13 10:52:29;;;;;;;4.63;2.47;;;;;;;23.79;49.06;94502.84;5137701;27;20713;-79
2022/09/13 10:55:15;;;;;;;4.20;2.60;;;;;;;24.07;46.07;94503.47;5136788;27;20266;-79
2022/09/13 10:57:42;;;;;;;3.58;2.33;;;;;;;24.42;45.26;94494.56;5135152;27;20197;-79
2022/09/13 11:00:12;;;;;;;2.70;2.50;;;;;;;24.91;43.63;94493.44;5138489;27;20223;-77
2022/09/13 11:02:56;;;;;;;5.68;2.60;;;;;;;25.25;44.53;94503.34;5140330;27;20233;-80
2022/09/13 11:05:29;;;;;;;2.60;2.40;;;;;;;25.04;43.54;94497.06;5137607;27;20324;-78
2022/09/13 11:08:17;;;;;;;3.08;2.50;;;;;;;25.22;41.52;94488.00;5136524;27;20191;-78
2022/09/13 11:10:55;;;;;;;3.55;2.10;;;;;;;25.51;46.86;94498.81;5137261;27;20191;-79
2022/09/13 11:13:33;;;;;;;2.60;2.40;;;;;;;25.57;40.60;94492.22;5136047;27;20202;-78
2022/09/13 11:16:12;;;;;;;3.15;2.85;;;;;;;25.22;40.83;94498.66;5141206;27;20214;-79
2022/09/13 11:19:00;;;;;;;4.10;2.55;;;;;;;24.52;41.93;94480.22;5130232;27;20231;-79
2022/09/13 11:21:41;;;;;;;2.50;2.30;;;;;;;24.58;43.92;94493.06;5145260;27;20199;-79
2022/09/13 11:24:24;;;;;;;2.25;2.05;;;;;;;24.67;41.74;94485.09;5153536;27;20194;-78
2022/09/13 11:27:03;;;;;;;9.80;2.38;;;;;;;25.21;43.38;94476.56;5140042;27;20196;-76
2022/09/13 11:29:43;;;;;;;4.47;2.35;;;;;;;25.97;41.15;94476.78;5143601;27;20235;-79
2022/09/13 11:32:23;;;;;;;3.10;2.47;;;;;;;26.23;37.04;94482.06;5134151;27;20217;-79
2022/09/13 11:35:06;;;;;;;2.85;2.22;;;;;;;25.80;40.39;94474.94;5134459;27;20255;-79
2022/09/13 11:37:47;;;;;;;3.85;2.53;;;;;;;25.70;39.07;94477.97;5130695;27;20183;-79
2022/09/13 11:40:31;;;;;;;4.28;2.30;;;;;;;25.75;39.31;94474.34;5140517;27;20195;-79
2022/09/13 11:43:10;;;;;;;4.15;2.30;;;;;;;26.14;38.83;94482.09;5142633;27;20198;-80
2022/09/13 11:45:43;;;;;;;2.72;2.50;;;;;;;25.81;40.84;94476.50;5152929;27;20225;-80
2022/09/13 11:48:51;;;;;;;3.90;2.40;;;;;;;25.57;40.88;94473.56;5134259;27;20205;-80
2022/09/13 11:51:27;;;;;;;2.60;2.40;;;;;;;26.19;39.12;94483.78;5111495;27;20244;-79